sensor_id;sensor_type;location;lat;lon;timestamp;pressure;altitude;pressure_sealevel;temperature;humidity
13800;BME280;6971;50.028;9.258;2022-10-16T00:03:43;99188.25;;;13.09;100.00
13800;BME280;6971;50.028;9.258;2022-10-16T00:08:45;99193.13;;;13.15;100.00
13800;BME280;6971;50.028;9.258;2022-10-16T00:13:48;99188.34;;;13.08;100.00
13800;BME280;6971;50.028;9.258;2022-10-16T00:18:49;99184.00;;;13.19;100.00
13800;BME280;6971;50.028;9.258;2022-10-16T00:23:55;99193.00;;;13.17;100.00
13800;BME280;6971;50.028;9.258;2022-10-16T00:28:57;99183.56;;;13.26;100.00
13800;BME280;6971;50.028;9.258;2022-10-16T00:34:09;99182.94;;;13.22;100.00
13800;BME280;6971;50.028;9.258;2022-10-16T00:39:12;99184.34;;;13.28;100.00
13800;BME280;6971;50.028;9.258;2022-10-16T00:49:46;99193.84;;;13.30;100.00
13800;BME280;6971;50.028;9.258;2022-10-16T00:54:49;99195.75;;;13.28;100.00
13800;BME280;6971;50.028;9.258;2022-10-16T00:59:50;99200.66;;;13.48;100.00
13800;BME280;6971;50.028;9.258;2022-10-16T01:04:52;99200.97;;;13.56;100.00
13800;BME280;6971;50.028;9.258;2022-10-16T01:10:22;99207.94;;;13.57;100.00
13800;BME280;6971;50.028;9.258;2022-10-16T01:15:27;99192.81;;;13.59;100.00
13800;BME280;6971;50.028;9.258;2022-10-16T01:31:19;99206.22;;;13.30;100.00
13800;BME280;6971;50.028;9.258;2022-10-16T01:36:28;99211.97;;;13.24;100.00
13800;BME280;6971;50.028;9.258;2022-10-16T01:41:38;99225.09;;;13.38;100.00
13800;BME280;6971;50.028;9.258;2022-10-16T01:46:43;99214.50;;;13.38;100.00
13800;BME280;6971;50.028;9.258;2022-10-16T01:51:48;99212.06;;;13.35;100.00
13800;BME280;6971;50.028;9.258;2022-10-16T01:56:51;99227.53;;;13.41;100.00
13800;BME280;6971;50.028;9.258;2022-10-16T02:01:55;99234.72;;;13.39;100.00
13800;BME280;6971;50.028;9.258;2022-10-16T02:06:58;99233.22;;;13.35;100.00
13800;BME280;6971;50.028;9.258;2022-10-16T02:12:05;99242.22;;;13.32;100.00
13800;BME280;6971;50.028;9.258;2022-10-16T02:17:19;99226.03;;;13.37;100.00
13800;BME280;6971;50.028;9.258;2022-10-16T02:22:26;99244.78;;;13.34;100.00
13800;BME280;6971;50.028;9.258;2022-10-16T02:27:41;99247.22;;;13.37;100.00
13800;BME280;6971;50.028;9.258;2022-10-16T02:32:46;99248.69;;;13.41;100.00
13800;BME280;6971;50.028;9.258;2022-10-16T02:37:49;99240.13;;;13.38;100.00
13800;BME280;6971;50.028;9.258;2022-10-16T02:42:52;99249.44;;;13.43;100.00
13800;BME280;6971;50.028;9.258;2022-10-16T02:47:53;99251.81;;;13.48;100.00
13800;BME280;6971;50.028;9.258;2022-10-16T02:52:54;99237.91;;;13.44;100.00
13800;BME280;6971;50.028;9.258;2022-10-16T02:57:55;99228.59;;;13.39;100.00
13800;BME280;6971;50.028;9.258;2022-10-16T03:02:55;99225.09;;;13.38;100.00
13800;BME280;6971;50.028;9.258;2022-10-16T03:07:56;99233.78;;;13.40;100.00
13800;BME280;6971;50.028;9.258;2022-10-16T03:13:00;99231.31;;;13.24;100.00
13800;BME280;6971;50.028;9.258;2022-10-16T03:18:01;99240.44;;;13.33;100.00
13800;BME280;6971;50.028;9.258;2022-10-16T03:23:02;99246.25;;;13.25;100.00
13800;BME280;6971;50.028;9.258;2022-10-16T03:28:03;99250.28;;;13.31;100.00
13800;BME280;6971;50.028;9.258;2022-10-16T03:33:05;99239.06;;;13.40;100.00
13800;BME280;6971;50.028;9.258;2022-10-16T03:38:06;99250.50;;;13.41;100.00
13800;BME280;6971;50.028;9.258;2022-10-16T03:43:07;99260.13;;;13.29;100.00
13800;BME280;6971;50.028;9.258;2022-10-16T03:48:08;99257.59;;;13.40;100.00
13800;BME280;6971;50.028;9.258;2022-10-16T03:53:09;99255.16;;;13.37;100.00
13800;BME280;6971;50.028;9.258;2022-10-16T03:58:10;99268.91;;;13.42;100.00
13800;BME280;6971;50.028;9.258;2022-10-16T04:03:11;99271.22;;;13.34;100.00
13800;BME280;6971;50.028;9.258;2022-10-16T04:08:12;99280.47;;;13.41;100.00
13800;BME280;6971;50.028;9.258;2022-10-16T04:13:13;99280.56;;;13.40;100.00
13800;BME280;6971;50.028;9.258;2022-10-16T04:18:13;99278.22;;;13.35;100.00
13800;BME280;6971;50.028;9.258;2022-10-16T04:23:14;99287.44;;;13.42;100.00
13800;BME280;6971;50.028;9.258;2022-10-16T04:28:15;99297.06;;;13.43;100.00
13800;BME280;6971;50.028;9.258;2022-10-16T04:33:16;99285.25;;;13.49;100.00
13800;BME280;6971;50.028;9.258;2022-10-16T04:38:17;99280.34;;;13.43;100.00
13800;BME280;6971;50.028;9.258;2022-10-16T04:43:19;99290.44;;;13.51;100.00
13800;BME280;6971;50.028;9.258;2022-10-16T04:48:20;99287.81;;;13.51;100.00
13800;BME280;6971;50.028;9.258;2022-10-16T04:53:21;99314.78;;;13.43;100.00
13800;BME280;6971;50.028;9.258;2022-10-16T04:58:22;99310.94;;;13.34;100.00
13800;BME280;6971;50.028;9.258;2022-10-16T05:03:23;99290.00;;;13.44;100.00
13800;BME280;6971;50.028;9.258;2022-10-16T05:08:24;99296.75;;;13.35;100.00
13800;BME280;6971;50.028;9.258;2022-10-16T05:13:24;99293.50;;;13.44;100.00
13800;BME280;6971;50.028;9.258;2022-10-16T05:18:25;99291.88;;;13.42;100.00
13800;BME280;6971;50.028;9.258;2022-10-16T05:23:26;99299.72;;;13.30;100.00
13800;BME280;6971;50.028;9.258;2022-10-16T05:28:28;99291.16;;;13.27;100.00
13800;BME280;6971;50.028;9.258;2022-10-16T05:33:30;99299.38;;;13.22;100.00
13800;BME280;6971;50.028;9.258;2022-10-16T05:38:31;99286.06;;;13.24;100.00
13800;BME280;6971;50.028;9.258;2022-10-16T05:43:32;99294.28;;;13.19;100.00
13800;BME280;6971;50.028;9.258;2022-10-16T05:48:33;99300.44;;;13.19;100.00
13800;BME280;6971;50.028;9.258;2022-10-16T05:53:36;99301.59;;;13.15;100.00
13800;BME280;6971;50.028;9.258;2022-10-16T05:58:37;99315.94;;;12.98;100.00
13800;BME280;6971;50.028;9.258;2022-10-16T06:03:38;99313.53;;;13.08;100.00
13800;BME280;6971;50.028;9.258;2022-10-16T06:08:41;99328.56;;;13.08;100.00
13800;BME280;6971;50.028;9.258;2022-10-16T06:13:42;99323.91;;;13.11;100.00
13800;BME280;6971;50.028;9.258;2022-10-16T06:18:43;99332.38;;;13.16;100.00
13800;BME280;6971;50.028;9.258;2022-10-16T06:23:45;99333.06;;;13.20;100.00
13800;BME280;6971;50.028;9.258;2022-10-16T06:29:00;99354.94;;;13.09;100.00
13800;BME280;6971;50.028;9.258;2022-10-16T06:34:01;99357.59;;;13.22;100.00
13800;BME280;6971;50.028;9.258;2022-10-16T06:39:03;99365.63;;;13.21;100.00
13800;BME280;6971;50.028;9.258;2022-10-16T06:44:05;99369.56;;;13.28;100.00
13800;BME280;6971;50.028;9.258;2022-10-16T06:49:08;99375.22;;;13.36;100.00
13800;BME280;6971;50.028;9.258;2022-10-16T06:54:08;99388.84;;;13.30;100.00
13800;BME280;6971;50.028;9.258;2022-10-16T06:59:10;99391.25;;;13.48;100.00
13800;BME280;6971;50.028;9.258;2022-10-16T07:04:11;99391.25;;;13.48;100.00
13800;BME280;6971;50.028;9.258;2022-10-16T07:09:13;99389.03;;;13.54;100.00
13800;BME280;6971;50.028;9.258;2022-10-16T07:14:17;99383.78;;;13.67;100.00
13800;BME280;6971;50.028;9.258;2022-10-16T07:19:18;99388.53;;;13.75;100.00
13800;BME280;6971;50.028;9.258;2022-10-16T07:24:19;99396.91;;;13.82;100.00
13800;BME280;6971;50.028;9.258;2022-10-16T07:29:21;99417.91;;;13.85;100.00
13800;BME280;6971;50.028;9.258;2022-10-16T07:34:22;99415.56;;;13.80;100.00
13800;BME280;6971;50.028;9.258;2022-10-16T07:39:23;99427.00;;;13.81;100.00
13800;BME280;6971;50.028;9.258;2022-10-16T07:44:24;99425.94;;;13.96;100.00
13800;BME280;6971;50.028;9.258;2022-10-16T07:49:25;99431.69;;;14.16;100.00
13800;BME280;6971;50.028;9.258;2022-10-16T07:54:26;99438.16;;;14.25;100.00
13800;BME280;6971;50.028;9.258;2022-10-16T07:59:28;99446.41;;;14.33;100.00
13800;BME280;6971;50.028;9.258;2022-10-16T08:04:29;99441.13;;;14.46;100.00
13800;BME280;6971;50.028;9.258;2022-10-16T08:09:30;99446.63;;;14.43;100.00
13800;BME280;6971;50.028;9.258;2022-10-16T08:14:31;99451.50;;;14.49;100.00
13800;BME280;6971;50.028;9.258;2022-10-16T08:19:33;99459.03;;;14.56;100.00
13800;BME280;6971;50.028;9.258;2022-10-16T08:24:35;99463.03;;;14.61;100.00
13800;BME280;6971;50.028;9.258;2022-10-16T08:29:37;99465.69;;;14.74;100.00
13800;BME280;6971;50.028;9.258;2022-10-16T08:34:41;99477.91;;;14.77;100.00
13800;BME280;6971;50.028;9.258;2022-10-16T08:39:42;99486.13;;;14.98;100.00
13800;BME280;6971;50.028;9.258;2022-10-16T08:50:11;99499.84;;;15.30;100.00
13800;BME280;6971;50.028;9.258;2022-10-16T08:55:32;99508.97;;;15.38;100.00
13800;BME280;6971;50.028;9.258;2022-10-16T09:00:35;99518.94;;;15.35;100.00
13800;BME280;6971;50.028;9.258;2022-10-16T09:05:49;99517.50;;;15.31;100.00
13800;BME280;6971;50.028;9.258;2022-10-16T09:16:30;99543.00;;;15.20;100.00
13800;BME280;6971;50.028;9.258;2022-10-16T09:21:41;99565.41;;;15.16;100.00
13800;BME280;6971;50.028;9.258;2022-10-16T09:26:43;99569.31;;;15.23;100.00
13800;BME280;6971;50.028;9.258;2022-10-16T09:32:18;99575.72;;;15.08;100.00
13800;BME280;6971;50.028;9.258;2022-10-16T09:37:22;99575.28;;;15.14;100.00
13800;BME280;6971;50.028;9.258;2022-10-16T09:42:31;99576.13;;;15.27;100.00
13800;BME280;6971;50.028;9.258;2022-10-16T09:47:39;99583.94;;;15.42;100.00
13800;BME280;6971;50.028;9.258;2022-10-16T09:52:43;99589.44;;;15.39;100.00
13800;BME280;6971;50.028;9.258;2022-10-16T09:57:51;99599.50;;;15.60;100.00
13800;BME280;6971;50.028;9.258;2022-10-16T10:02:53;99612.06;;;15.58;100.00
13800;BME280;6971;50.028;9.258;2022-10-16T10:07:57;99618.84;;;15.62;100.00
13800;BME280;6971;50.028;9.258;2022-10-16T10:12:58;99615.72;;;15.68;100.00
13800;BME280;6971;50.028;9.258;2022-10-16T10:18:00;99608.72;;;15.67;100.00
13800;BME280;6971;50.028;9.258;2022-10-16T10:23:24;99606.25;;;16.01;100.00
13800;BME280;6971;50.028;9.258;2022-10-16T10:33:54;99602.47;;;16.64;100.00
13800;BME280;6971;50.028;9.258;2022-10-16T11:16:58;99588.28;;;18.44;100.00
13800;BME280;6971;50.028;9.258;2022-10-16T11:22:22;99587.84;;;18.91;100.00
13800;BME280;6971;50.028;9.258;2022-10-16T11:27:49;99585.22;;;18.70;100.00
13800;BME280;6971;50.028;9.258;2022-10-16T11:38:47;99593.53;;;18.12;100.00
13800;BME280;6971;50.028;9.258;2022-10-16T11:44:03;99590.00;;;18.66;100.00
13800;BME280;6971;50.028;9.258;2022-10-16T11:49:11;99587.63;;;18.73;100.00
13800;BME280;6971;50.028;9.258;2022-10-16T11:54:39;99596.09;;;18.35;100.00
13800;BME280;6971;50.028;9.258;2022-10-16T11:59:51;99600.00;;;18.31;100.00
13800;BME280;6971;50.028;9.258;2022-10-16T12:05:06;99604.44;;;19.57;100.00
13800;BME280;6971;50.028;9.258;2022-10-16T12:10:25;99602.88;;;18.92;100.00
13800;BME280;6971;50.028;9.258;2022-10-16T12:15:28;99604.53;;;18.83;100.00
13800;BME280;6971;50.028;9.258;2022-10-16T12:20:33;99607.13;;;18.63;100.00
13800;BME280;6971;50.028;9.258;2022-10-16T12:25:37;99599.88;;;18.33;100.00
13800;BME280;6971;50.028;9.258;2022-10-16T12:31:13;99603.97;;;18.04;100.00
13800;BME280;6971;50.028;9.258;2022-10-16T12:36:25;99596.41;;;18.21;100.00
13800;BME280;6971;50.028;9.258;2022-10-16T12:41:35;99604.00;;;18.25;100.00
13800;BME280;6971;50.028;9.258;2022-10-16T12:46:40;99602.28;;;18.57;100.00
13800;BME280;6971;50.028;9.258;2022-10-16T12:51:42;99603.00;;;18.38;100.00
13800;BME280;6971;50.028;9.258;2022-10-16T12:56:50;99599.75;;;18.34;100.00
13800;BME280;6971;50.028;9.258;2022-10-16T13:13:14;99625.03;;;18.19;100.00
13800;BME280;6971;50.028;9.258;2022-10-16T13:28:59;99638.69;;;17.81;100.00
13800;BME280;6971;50.028;9.258;2022-10-16T13:34:00;99630.34;;;17.74;100.00
13800;BME280;6971;50.028;9.258;2022-10-16T13:39:24;99627.56;;;17.65;100.00
13800;BME280;6971;50.028;9.258;2022-10-16T13:44:26;99625.84;;;17.86;100.00
13800;BME280;6971;50.028;9.258;2022-10-16T13:49:27;99641.94;;;17.85;100.00
13800;BME280;6971;50.028;9.258;2022-10-16T13:54:27;99636.94;;;18.03;100.00
13800;BME280;6971;50.028;9.258;2022-10-16T13:59:35;99639.16;;;17.98;100.00
13800;BME280;6971;50.028;9.258;2022-10-16T14:04:38;99647.56;;;17.70;100.00
13800;BME280;6971;50.028;9.258;2022-10-16T14:09:40;99636.19;;;17.57;100.00
13800;BME280;6971;50.028;9.258;2022-10-16T14:14:46;99649.03;;;17.52;100.00
13800;BME280;6971;50.028;9.258;2022-10-16T14:19:50;99648.69;;;17.45;100.00
13800;BME280;6971;50.028;9.258;2022-10-16T14:24:51;99654.25;;;17.53;100.00
13800;BME280;6971;50.028;9.258;2022-10-16T14:30:12;99649.50;;;17.68;100.00
13800;BME280;6971;50.028;9.258;2022-10-16T14:40:35;99636.19;;;17.45;100.00
13800;BME280;6971;50.028;9.258;2022-10-16T14:45:35;99626.16;;;17.38;100.00
13800;BME280;6971;50.028;9.258;2022-10-16T14:50:36;99611.84;;;17.39;100.00
13800;BME280;6971;50.028;9.258;2022-10-16T14:55:38;99617.47;;;17.35;100.00
13800;BME280;6971;50.028;9.258;2022-10-16T15:00:39;99624.69;;;17.33;100.00
13800;BME280;6971;50.028;9.258;2022-10-16T15:05:40;99623.50;;;17.38;100.00
13800;BME280;6971;50.028;9.258;2022-10-16T15:10:43;99625.78;;;17.31;100.00
13800;BME280;6971;50.028;9.258;2022-10-16T15:15:45;99625.69;;;17.32;100.00
13800;BME280;6971;50.028;9.258;2022-10-16T15:20:48;99632.19;;;17.17;100.00
13800;BME280;6971;50.028;9.258;2022-10-16T15:25:54;99629.69;;;17.15;100.00
13800;BME280;6971;50.028;9.258;2022-10-16T15:30:56;99628.34;;;17.09;100.00
13800;BME280;6971;50.028;9.258;2022-10-16T15:35:57;99623.13;;;17.08;100.00
13800;BME280;6971;50.028;9.258;2022-10-16T15:40:58;99620.81;;;16.92;100.00
13800;BME280;6971;50.028;9.258;2022-10-16T15:46:06;99623.94;;;16.97;100.00
13800;BME280;6971;50.028;9.258;2022-10-16T15:51:10;99621.63;;;16.92;100.00
13800;BME280;6971;50.028;9.258;2022-10-16T15:56:11;99625.75;;;16.85;100.00
13800;BME280;6971;50.028;9.258;2022-10-16T16:01:12;99623.31;;;16.82;100.00
13800;BME280;6971;50.028;9.258;2022-10-16T16:06:13;99635.16;;;16.78;100.00
13800;BME280;6971;50.028;9.258;2022-10-16T16:11:16;99640.34;;;16.68;100.00
13800;BME280;6971;50.028;9.258;2022-10-16T16:16:17;99642.72;;;16.48;100.00
13800;BME280;6971;50.028;9.258;2022-10-16T16:21:18;99651.38;;;16.39;100.00
13800;BME280;6971;50.028;9.258;2022-10-16T16:26:27;99658.31;;;16.17;100.00
13800;BME280;6971;50.028;9.258;2022-10-16T16:31:30;99673.25;;;16.07;100.00
13800;BME280;6971;50.028;9.258;2022-10-16T16:36:31;99683.97;;;15.92;100.00
13800;BME280;6971;50.028;9.258;2022-10-16T16:41:33;99678.22;;;15.61;100.00
13800;BME280;6971;50.028;9.258;2022-10-16T16:46:34;99678.13;;;15.62;100.00
13800;BME280;6971;50.028;9.258;2022-10-16T16:51:35;99681.88;;;15.47;100.00
13800;BME280;6971;50.028;9.258;2022-10-16T16:56:36;99689.94;;;15.32;100.00
13800;BME280;6971;50.028;9.258;2022-10-16T17:01:37;99690.47;;;15.24;100.00
13800;BME280;6971;50.028;9.258;2022-10-16T17:06:38;99691.03;;;15.17;100.00
13800;BME280;6971;50.028;9.258;2022-10-16T17:11:39;99706.09;;;15.03;100.00
13800;BME280;6971;50.028;9.258;2022-10-16T17:16:42;99704.59;;;14.99;100.00
13800;BME280;6971;50.028;9.258;2022-10-16T17:21:50;99710.88;;;14.98;100.00
13800;BME280;6971;50.028;9.258;2022-10-16T17:26:51;99716.66;;;14.90;100.00
13800;BME280;6971;50.028;9.258;2022-10-16T17:31:52;99709.03;;;14.85;100.00
13800;BME280;6971;50.028;9.258;2022-10-16T17:36:53;99708.59;;;14.79;100.00
13800;BME280;6971;50.028;9.258;2022-10-16T17:41:54;99704.25;;;14.78;100.00
13800;BME280;6971;50.028;9.258;2022-10-16T17:46:55;99708.88;;;14.74;100.00
13800;BME280;6971;50.028;9.258;2022-10-16T17:51:56;99713.63;;;14.69;100.00
13800;BME280;6971;50.028;9.258;2022-10-16T17:56:57;99717.44;;;14.65;100.00
13800;BME280;6971;50.028;9.258;2022-10-16T18:01:58;99727.53;;;14.59;100.00
13800;BME280;6971;50.028;9.258;2022-10-16T18:06:58;99731.22;;;14.57;100.00
13800;BME280;6971;50.028;9.258;2022-10-16T18:12:00;99731.75;;;14.49;100.00
13800;BME280;6971;50.028;9.258;2022-10-16T18:17:01;99729.56;;;14.41;100.00
13800;BME280;6971;50.028;9.258;2022-10-16T18:22:04;99741.53;;;14.34;100.00
13800;BME280;6971;50.028;9.258;2022-10-16T18:27:04;99749.31;;;14.22;100.00
13800;BME280;6971;50.028;9.258;2022-10-16T18:32:05;99748.22;;;14.12;100.00
13800;BME280;6971;50.028;9.258;2022-10-16T18:37:06;99748.81;;;14.03;100.00
13800;BME280;6971;50.028;9.258;2022-10-16T18:42:07;99745.78;;;13.94;100.00
13800;BME280;6971;50.028;9.258;2022-10-16T18:47:08;99753.38;;;13.86;100.00
13800;BME280;6971;50.028;9.258;2022-10-16T18:52:09;99754.69;;;13.79;100.00
13800;BME280;6971;50.028;9.258;2022-10-16T18:57:10;99747.50;;;13.66;100.00
13800;BME280;6971;50.028;9.258;2022-10-16T19:02:11;99755.09;;;13.58;100.00
13800;BME280;6971;50.028;9.258;2022-10-16T19:07:11;99756.22;;;13.54;100.00
13800;BME280;6971;50.028;9.258;2022-10-16T19:12:15;99756.38;;;13.36;100.00
13800;BME280;6971;50.028;9.258;2022-10-16T19:17:16;99756.72;;;13.30;100.00
13800;BME280;6971;50.028;9.258;2022-10-16T19:22:16;99757.09;;;13.24;100.00
13800;BME280;6971;50.028;9.258;2022-10-16T19:27:27;99763.13;;;13.11;100.00
13800;BME280;6971;50.028;9.258;2022-10-16T19:32:30;99764.16;;;13.09;100.00
13800;BME280;6971;50.028;9.258;2022-10-16T19:37:32;99761.03;;;13.02;100.00
13800;BME280;6971;50.028;9.258;2022-10-16T19:42:33;99759.00;;;12.91;100.00
13800;BME280;6971;50.028;9.258;2022-10-16T19:47:35;99773.81;;;12.79;100.00
13800;BME280;6971;50.028;9.258;2022-10-16T19:52:37;99778.75;;;12.69;100.00
13800;BME280;6971;50.028;9.258;2022-10-16T19:57:38;99783.31;;;12.67;100.00
13800;BME280;6971;50.028;9.258;2022-10-16T20:02:39;99777.09;;;12.52;100.00
13800;BME280;6971;50.028;9.258;2022-10-16T20:07:40;99786.22;;;12.46;100.00
13800;BME280;6971;50.028;9.258;2022-10-16T20:12:41;99801.47;;;12.41;100.00
13800;BME280;6971;50.028;9.258;2022-10-16T20:17:42;99799.00;;;12.38;100.00
13800;BME280;6971;50.028;9.258;2022-10-16T20:22:43;99810.94;;;12.29;100.00
13800;BME280;6971;50.028;9.258;2022-10-16T20:27:43;99809.81;;;12.17;100.00
13800;BME280;6971;50.028;9.258;2022-10-16T20:32:44;99800.47;;;12.11;100.00
13800;BME280;6971;50.028;9.258;2022-10-16T20:37:45;99802.16;;;12.12;100.00
13800;BME280;6971;50.028;9.258;2022-10-16T20:42:48;99793.09;;;12.00;100.00
13800;BME280;6971;50.028;9.258;2022-10-16T20:47:49;99799.69;;;11.92;100.00
13800;BME280;6971;50.028;9.258;2022-10-16T20:52:50;99810.09;;;11.95;100.00
13800;BME280;6971;50.028;9.258;2022-10-16T20:57:51;99817.44;;;11.90;100.00
13800;BME280;6971;50.028;9.258;2022-10-16T21:02:51;99812.47;;;11.83;100.00
13800;BME280;6971;50.028;9.258;2022-10-16T21:07:52;99822.50;;;11.77;100.00
13800;BME280;6971;50.028;9.258;2022-10-16T21:12:53;99821.66;;;11.76;100.00
13800;BME280;6971;50.028;9.258;2022-10-16T21:17:54;99821.03;;;11.71;100.00
13800;BME280;6971;50.028;9.258;2022-10-16T21:22:55;99822.38;;;11.62;100.00
13800;BME280;6971;50.028;9.258;2022-10-16T21:27:55;99825.09;;;11.60;100.00
13800;BME280;6971;50.028;9.258;2022-10-16T21:32:56;99833.47;;;11.51;100.00
13800;BME280;6971;50.028;9.258;2022-10-16T21:37:57;99827.25;;;11.52;100.00
13800;BME280;6971;50.028;9.258;2022-10-16T21:42:58;99839.44;;;11.55;100.00
13800;BME280;6971;50.028;9.258;2022-10-16T21:47:59;99842.63;;;11.44;100.00
13800;BME280;6971;50.028;9.258;2022-10-16T21:53:00;99835.50;;;11.46;100.00
13800;BME280;6971;50.028;9.258;2022-10-16T21:58:00;99838.28;;;11.43;100.00
13800;BME280;6971;50.028;9.258;2022-10-16T22:03:01;99841.72;;;11.27;100.00
13800;BME280;6971;50.028;9.258;2022-10-16T22:08:01;99835.19;;;11.34;100.00
13800;BME280;6971;50.028;9.258;2022-10-16T22:13:02;99829.31;;;11.29;100.00
13800;BME280;6971;50.028;9.258;2022-10-16T22:18:03;99834.97;;;11.21;100.00
13800;BME280;6971;50.028;9.258;2022-10-16T22:23:04;99831.47;;;11.21;100.00
13800;BME280;6971;50.028;9.258;2022-10-16T22:28:05;99833.50;;;11.16;100.00
13800;BME280;6971;50.028;9.258;2022-10-16T22:33:05;99833.81;;;11.09;100.00
13800;BME280;6971;50.028;9.258;2022-10-16T22:38:07;99841.78;;;11.08;100.00
13800;BME280;6971;50.028;9.258;2022-10-16T22:43:08;99843.00;;;11.01;100.00
13800;BME280;6971;50.028;9.258;2022-10-16T22:48:09;99846.19;;;11.07;100.00
13800;BME280;6971;50.028;9.258;2022-10-16T22:53:09;99853.19;;;11.08;100.00
13800;BME280;6971;50.028;9.258;2022-10-16T22:58:10;99859.25;;;11.10;100.00
13800;BME280;6971;50.028;9.258;2022-10-16T23:03:11;99856.47;;;11.14;100.00
13800;BME280;6971;50.028;9.258;2022-10-16T23:08:12;99855.06;;;11.06;100.00
13800;BME280;6971;50.028;9.258;2022-10-16T23:13:13;99854.56;;;10.98;100.00
13800;BME280;6971;50.028;9.258;2022-10-16T23:18:13;99862.34;;;11.01;100.00
13800;BME280;6971;50.028;9.258;2022-10-16T23:23:14;99859.53;;;11.04;100.00
13800;BME280;6971;50.028;9.258;2022-10-16T23:28:15;99866.88;;;10.97;100.00
13800;BME280;6971;50.028;9.258;2022-10-16T23:33:16;99873.16;;;10.95;100.00
13800;BME280;6971;50.028;9.258;2022-10-16T23:38:16;99876.75;;;10.94;100.00
13800;BME280;6971;50.028;9.258;2022-10-16T23:43:17;99890.16;;;10.89;100.00
13800;BME280;6971;50.028;9.258;2022-10-16T23:48:18;99892.63;;;10.92;100.00
13800;BME280;6971;50.028;9.258;2022-10-16T23:53:19;99885.88;;;10.87;100.00
13800;BME280;6971;50.028;9.258;2022-10-16T23:58:20;99891.31;;;10.83;100.00
